Hlavní strana
METAR-TAF:

METAR-TAF

Letiště :

Plzeň, Česká republika

Letiště Plzeň Líně

zeměpisná šířka: 49-40-31N, zeměpisná délka: 13-16-29E, výška: 362 m

Aktuální stav počasí

Zpráva byla vytvořena před 44 minutami, v 04:05 UTC
Bezvětří
Teplota -3°C
Vlhkost vzduchu 93%
Tlak 1025 hPa
Viditelnost: 4700 m
kouřmo

METAR: LKLN 180405Z AUTO 00000KT 4700 BR NCD M03/M04 Q1025

Čas: 05:49 (04:49 UTC)


TAF: chybějící

Stav a předpovědi počasí z více než 4 000 letišť (zprávy METAR a TAF).

Červené a žluté tečky na mapě představují dostupné meteorologické stanice.

Když kurzor umístíte na tečku, zobrazí se název stanice.

Pak kliknutím zobrazíte stav a předpověď počasí.

Chcete-li změnit mapu, kliknutím na zelené tlačítko se znaménkem +mapu přiblížíte, kliknutím na zelené tlačítko se znaménkem – mapu oddálíte a kliknutím na zelené šipky přejdete na sousední mapy.


METAR-TAF: